sensor_id;sensor_type;location;lat;lon;timestamp;P1;durP1;ratioP1;P2;durP2;ratioP2
48211;SDS011;34000;48.772;9.162;2022-09-25T00:01:30;7.97;;;5.32;;
48211;SDS011;34000;48.772;9.162;2022-09-25T00:03:56;8.80;;;5.30;;
48211;SDS011;34000;48.772;9.162;2022-09-25T00:06:23;9.05;;;6.38;;
48211;SDS011;34000;48.772;9.162;2022-09-25T00:08:50;11.07;;;6.70;;
48211;SDS011;34000;48.772;9.162;2022-09-25T00:11:23;7.22;;;5.20;;
48211;SDS011;34000;48.772;9.162;2022-09-25T00:13:51;9.60;;;4.97;;
48211;SDS011;34000;48.772;9.162;2022-09-25T00:16:19;9.25;;;5.82;;
48211;SDS011;34000;48.772;9.162;2022-09-25T00:18:47;8.98;;;5.72;;
48211;SDS011;34000;48.772;9.162;2022-09-25T00:21:31;10.63;;;5.70;;
48211;SDS011;34000;48.772;9.162;2022-09-25T00:23:59;8.48;;;5.50;;
48211;SDS011;34000;48.772;9.162;2022-09-25T00:26:27;9.57;;;5.40;;
48211;SDS011;34000;48.772;9.162;2022-09-25T00:28:54;7.40;;;5.65;;
48211;SDS011;34000;48.772;9.162;2022-09-25T00:31:20;9.15;;;5.95;;
48211;SDS011;34000;48.772;9.162;2022-09-25T00:33:48;7.00;;;5.30;;
48211;SDS011;34000;48.772;9.162;2022-09-25T00:36:15;9.20;;;6.07;;
48211;SDS011;34000;48.772;9.162;2022-09-25T00:38:41;9.35;;;6.13;;
48211;SDS011;34000;48.772;9.162;2022-09-25T00:41:07;10.68;;;5.80;;
48211;SDS011;34000;48.772;9.162;2022-09-25T00:43:46;7.63;;;5.55;;
48211;SDS011;34000;48.772;9.162;2022-09-25T00:48:52;9.85;;;6.10;;
48211;SDS011;34000;48.772;9.162;2022-09-25T00:53:58;9.35;;;5.88;;
48211;SDS011;34000;48.772;9.162;2022-09-25T00:56:27;9.77;;;6.20;;
48211;SDS011;34000;48.772;9.162;2022-09-25T00:58:57;9.48;;;6.60;;
48211;SDS011;34000;48.772;9.162;2022-09-25T01:01:23;8.35;;;5.80;;
48211;SDS011;34000;48.772;9.162;2022-09-25T01:03:48;10.27;;;6.63;;
48211;SDS011;34000;48.772;9.162;2022-09-25T01:06:14;8.98;;;5.75;;
48211;SDS011;34000;48.772;9.162;2022-09-25T01:11:11;8.77;;;6.30;;
48211;SDS011;34000;48.772;9.162;2022-09-25T01:13:37;9.43;;;5.90;;
48211;SDS011;34000;48.772;9.162;2022-09-25T01:16:06;9.60;;;6.07;;
48211;SDS011;34000;48.772;9.162;2022-09-25T01:18:43;10.43;;;5.97;;
48211;SDS011;34000;48.772;9.162;2022-09-25T01:21:38;9.63;;;6.20;;
48211;SDS011;34000;48.772;9.162;2022-09-25T01:29:52;9.52;;;6.50;;
48211;SDS011;34000;48.772;9.162;2022-09-25T01:37:32;10.35;;;6.15;;
48211;SDS011;34000;48.772;9.162;2022-09-25T01:40:12;9.68;;;6.13;;
48211;SDS011;34000;48.772;9.162;2022-09-25T01:42:40;8.85;;;6.28;;
48211;SDS011;34000;48.772;9.162;2022-09-25T01:45:12;8.53;;;6.10;;
48211;SDS011;34000;48.772;9.162;2022-09-25T01:47:44;9.63;;;6.13;;
48211;SDS011;34000;48.772;9.162;2022-09-25T01:50:14;10.50;;;5.80;;
48211;SDS011;34000;48.772;9.162;2022-09-25T01:52:48;7.95;;;5.30;;
48211;SDS011;34000;48.772;9.162;2022-09-25T01:55:22;8.48;;;5.65;;
48211;SDS011;34000;48.772;9.162;2022-09-25T02:00:32;7.97;;;5.55;;
48211;SDS011;34000;48.772;9.162;2022-09-25T02:03:07;9.30;;;5.60;;
48211;SDS011;34000;48.772;9.162;2022-09-25T02:05:46;7.30;;;4.88;;
48211;SDS011;34000;48.772;9.162;2022-09-25T02:08:16;8.40;;;5.88;;
48211;SDS011;34000;48.772;9.162;2022-09-25T02:10:56;6.45;;;4.63;;
48211;SDS011;34000;48.772;9.162;2022-09-25T02:13:31;7.05;;;5.03;;
48211;SDS011;34000;48.772;9.162;2022-09-25T02:16:21;8.35;;;5.63;;
48211;SDS011;34000;48.772;9.162;2022-09-25T02:18:52;8.77;;;6.00;;
48211;SDS011;34000;48.772;9.162;2022-09-25T02:26:46;9.40;;;6.70;;
48211;SDS011;34000;48.772;9.162;2022-09-25T02:29:13;9.63;;;6.25;;
48211;SDS011;34000;48.772;9.162;2022-09-25T02:31:44;11.57;;;6.53;;
48211;SDS011;34000;48.772;9.162;2022-09-25T02:34:11;9.77;;;6.38;;
48211;SDS011;34000;48.772;9.162;2022-09-25T02:36:36;11.52;;;6.85;;
48211;SDS011;34000;48.772;9.162;2022-09-25T02:39:02;9.35;;;6.07;;
48211;SDS011;34000;48.772;9.162;2022-09-25T02:41:35;10.98;;;6.28;;
48211;SDS011;34000;48.772;9.162;2022-09-25T02:44:34;11.32;;;6.70;;
48211;SDS011;34000;48.772;9.162;2022-09-25T02:52:32;8.90;;;5.68;;
48211;SDS011;34000;48.772;9.162;2022-09-25T02:55:06;8.70;;;5.32;;
48211;SDS011;34000;48.772;9.162;2022-09-25T03:00:15;9.30;;;5.80;;
48211;SDS011;34000;48.772;9.162;2022-09-25T03:02:42;10.65;;;5.93;;
48211;SDS011;34000;48.772;9.162;2022-09-25T03:05:10;8.20;;;5.32;;
48211;SDS011;34000;48.772;9.162;2022-09-25T03:07:37;7.93;;;5.40;;
48211;SDS011;34000;48.772;9.162;2022-09-25T03:10:22;11.00;;;5.78;;
48211;SDS011;34000;48.772;9.162;2022-09-25T03:12:48;8.60;;;5.43;;
48211;SDS011;34000;48.772;9.162;2022-09-25T03:15:13;8.80;;;6.20;;
48211;SDS011;34000;48.772;9.162;2022-09-25T03:17:40;9.90;;;5.65;;
48211;SDS011;34000;48.772;9.162;2022-09-25T03:20:06;9.40;;;5.55;;
48211;SDS011;34000;48.772;9.162;2022-09-25T03:22:33;9.93;;;6.50;;
48211;SDS011;34000;48.772;9.162;2022-09-25T03:25:00;10.07;;;6.00;;
48211;SDS011;34000;48.772;9.162;2022-09-25T03:27:25;10.77;;;6.53;;
48211;SDS011;34000;48.772;9.162;2022-09-25T03:29:54;10.18;;;6.15;;
48211;SDS011;34000;48.772;9.162;2022-09-25T03:32:20;10.18;;;6.60;;
48211;SDS011;34000;48.772;9.162;2022-09-25T03:34:46;9.73;;;5.70;;
48211;SDS011;34000;48.772;9.162;2022-09-25T03:37:11;9.82;;;5.85;;
48211;SDS011;34000;48.772;9.162;2022-09-25T03:39:37;9.00;;;6.00;;
48211;SDS011;34000;48.772;9.162;2022-09-25T03:42:03;7.97;;;5.78;;
48211;SDS011;34000;48.772;9.162;2022-09-25T03:44:29;9.85;;;6.00;;
48211;SDS011;34000;48.772;9.162;2022-09-25T03:46:54;11.38;;;6.65;;
48211;SDS011;34000;48.772;9.162;2022-09-25T03:49:20;11.00;;;6.03;;
48211;SDS011;34000;48.772;9.162;2022-09-25T03:51:46;7.60;;;5.53;;
48211;SDS011;34000;48.772;9.162;2022-09-25T03:54:12;9.82;;;5.82;;
48211;SDS011;34000;48.772;9.162;2022-09-25T03:56:38;8.85;;;5.88;;
48211;SDS011;34000;48.772;9.162;2022-09-25T03:59:04;8.70;;;5.63;;
48211;SDS011;34000;48.772;9.162;2022-09-25T04:01:29;8.93;;;5.82;;
48211;SDS011;34000;48.772;9.162;2022-09-25T04:03:55;9.60;;;6.25;;
48211;SDS011;34000;48.772;9.162;2022-09-25T04:06:22;9.90;;;5.90;;
48211;SDS011;34000;48.772;9.162;2022-09-25T04:08:49;8.20;;;5.15;;
48211;SDS011;34000;48.772;9.162;2022-09-25T04:11:16;8.70;;;5.53;;
48211;SDS011;34000;48.772;9.162;2022-09-25T04:13:44;8.07;;;5.22;;
48211;SDS011;34000;48.772;9.162;2022-09-25T04:16:10;10.23;;;5.95;;
48211;SDS011;34000;48.772;9.162;2022-09-25T04:18:37;8.43;;;6.22;;
48211;SDS011;34000;48.772;9.162;2022-09-25T04:21:05;10.27;;;6.05;;
48211;SDS011;34000;48.772;9.162;2022-09-25T04:23:32;9.90;;;6.90;;
48211;SDS011;34000;48.772;9.162;2022-09-25T04:25:59;11.68;;;6.82;;
48211;SDS011;34000;48.772;9.162;2022-09-25T04:28:25;13.00;;;7.97;;
48211;SDS011;34000;48.772;9.162;2022-09-25T04:30:51;11.88;;;7.80;;
48211;SDS011;34000;48.772;9.162;2022-09-25T04:33:17;12.32;;;7.55;;
48211;SDS011;34000;48.772;9.162;2022-09-25T04:36:02;13.57;;;7.30;;
48211;SDS011;34000;48.772;9.162;2022-09-25T04:38:28;12.85;;;7.97;;
48211;SDS011;34000;48.772;9.162;2022-09-25T04:40:56;11.85;;;7.60;;
48211;SDS011;34000;48.772;9.162;2022-09-25T04:43:24;13.93;;;8.27;;
48211;SDS011;34000;48.772;9.162;2022-09-25T04:45:51;11.20;;;6.93;;
48211;SDS011;34000;48.772;9.162;2022-09-25T04:48:17;13.05;;;8.10;;
48211;SDS011;34000;48.772;9.162;2022-09-25T04:50:46;10.18;;;7.43;;
48211;SDS011;34000;48.772;9.162;2022-09-25T04:53:13;11.60;;;7.35;;
48211;SDS011;34000;48.772;9.162;2022-09-25T04:55:39;15.63;;;8.23;;
48211;SDS011;34000;48.772;9.162;2022-09-25T04:58:04;12.43;;;7.68;;
48211;SDS011;34000;48.772;9.162;2022-09-25T05:00:30;11.60;;;6.90;;
48211;SDS011;34000;48.772;9.162;2022-09-25T05:02:56;10.15;;;7.18;;
48211;SDS011;34000;48.772;9.162;2022-09-25T05:05:23;13.48;;;7.60;;
48211;SDS011;34000;48.772;9.162;2022-09-25T05:07:55;10.57;;;6.78;;
48211;SDS011;34000;48.772;9.162;2022-09-25T05:10:22;10.38;;;6.65;;
48211;SDS011;34000;48.772;9.162;2022-09-25T05:12:53;9.50;;;6.03;;
48211;SDS011;34000;48.772;9.162;2022-09-25T05:15:20;10.70;;;6.57;;
48211;SDS011;34000;48.772;9.162;2022-09-25T05:17:46;9.55;;;6.22;;
48211;SDS011;34000;48.772;9.162;2022-09-25T05:20:11;9.00;;;5.80;;
48211;SDS011;34000;48.772;9.162;2022-09-25T05:22:37;10.48;;;6.13;;
48211;SDS011;34000;48.772;9.162;2022-09-25T05:25:03;7.93;;;5.15;;
48211;SDS011;34000;48.772;9.162;2022-09-25T05:27:31;8.77;;;5.60;;
48211;SDS011;34000;48.772;9.162;2022-09-25T05:29:57;9.40;;;5.68;;
48211;SDS011;34000;48.772;9.162;2022-09-25T05:32:23;10.15;;;5.93;;
48211;SDS011;34000;48.772;9.162;2022-09-25T05:34:49;8.98;;;5.60;;
48211;SDS011;34000;48.772;9.162;2022-09-25T05:37:14;10.07;;;6.20;;
48211;SDS011;34000;48.772;9.162;2022-09-25T05:39:40;14.77;;;7.90;;
48211;SDS011;34000;48.772;9.162;2022-09-25T05:42:05;10.93;;;7.20;;
48211;SDS011;34000;48.772;9.162;2022-09-25T05:44:31;12.82;;;7.65;;
48211;SDS011;34000;48.772;9.162;2022-09-25T05:46:56;15.00;;;8.40;;
48211;SDS011;34000;48.772;9.162;2022-09-25T05:49:22;10.95;;;7.15;;
48211;SDS011;34000;48.772;9.162;2022-09-25T05:51:49;10.82;;;6.57;;
48211;SDS011;34000;48.772;9.162;2022-09-25T05:54:14;11.55;;;6.95;;
48211;SDS011;34000;48.772;9.162;2022-09-25T05:56:40;11.23;;;6.30;;
48211;SDS011;34000;48.772;9.162;2022-09-25T05:59:05;10.02;;;5.65;;
48211;SDS011;34000;48.772;9.162;2022-09-25T06:01:31;9.80;;;6.45;;
48211;SDS011;34000;48.772;9.162;2022-09-25T06:03:56;8.32;;;6.05;;
48211;SDS011;34000;48.772;9.162;2022-09-25T06:06:22;8.85;;;6.07;;
48211;SDS011;34000;48.772;9.162;2022-09-25T06:08:48;9.00;;;6.07;;
48211;SDS011;34000;48.772;9.162;2022-09-25T06:11:13;10.65;;;6.72;;
48211;SDS011;34000;48.772;9.162;2022-09-25T06:13:39;8.07;;;5.68;;
48211;SDS011;34000;48.772;9.162;2022-09-25T06:16:12;11.63;;;5.72;;
48211;SDS011;34000;48.772;9.162;2022-09-25T06:18:42;9.90;;;6.15;;
48211;SDS011;34000;48.772;9.162;2022-09-25T06:21:08;10.80;;;6.25;;
48211;SDS011;34000;48.772;9.162;2022-09-25T06:23:33;11.18;;;6.45;;
48211;SDS011;34000;48.772;9.162;2022-09-25T06:26:03;9.23;;;5.90;;
48211;SDS011;34000;48.772;9.162;2022-09-25T06:28:30;12.18;;;5.93;;
48211;SDS011;34000;48.772;9.162;2022-09-25T06:31:00;8.38;;;5.75;;
48211;SDS011;34000;48.772;9.162;2022-09-25T06:33:26;9.30;;;5.95;;
48211;SDS011;34000;48.772;9.162;2022-09-25T06:35:52;9.80;;;5.32;;
48211;SDS011;34000;48.772;9.162;2022-09-25T06:38:17;11.80;;;6.10;;
48211;SDS011;34000;48.772;9.162;2022-09-25T06:40:43;9.88;;;6.10;;
48211;SDS011;34000;48.772;9.162;2022-09-25T06:43:10;8.98;;;6.20;;
48211;SDS011;34000;48.772;9.162;2022-09-25T06:45:37;10.27;;;6.43;;
48211;SDS011;34000;48.772;9.162;2022-09-25T06:48:04;10.23;;;5.88;;
48211;SDS011;34000;48.772;9.162;2022-09-25T06:50:39;10.45;;;6.38;;
48211;SDS011;34000;48.772;9.162;2022-09-25T06:53:12;11.85;;;6.28;;
48211;SDS011;34000;48.772;9.162;2022-09-25T06:55:38;10.48;;;6.43;;
48211;SDS011;34000;48.772;9.162;2022-09-25T06:58:05;11.13;;;6.47;;
48211;SDS011;34000;48.772;9.162;2022-09-25T07:00:32;11.50;;;6.32;;
48211;SDS011;34000;48.772;9.162;2022-09-25T07:02:58;11.70;;;6.13;;
48211;SDS011;34000;48.772;9.162;2022-09-25T07:05:44;13.10;;;6.50;;
48211;SDS011;34000;48.772;9.162;2022-09-25T07:08:11;14.93;;;6.38;;
48211;SDS011;34000;48.772;9.162;2022-09-25T07:10:45;13.50;;;6.82;;
48211;SDS011;34000;48.772;9.162;2022-09-25T07:13:12;10.60;;;6.57;;
48211;SDS011;34000;48.772;9.162;2022-09-25T07:15:37;12.38;;;6.95;;
48211;SDS011;34000;48.772;9.162;2022-09-25T07:18:03;11.68;;;6.55;;
48211;SDS011;34000;48.772;9.162;2022-09-25T07:20:29;11.13;;;5.82;;
48211;SDS011;34000;48.772;9.162;2022-09-25T07:22:57;8.90;;;5.68;;
48211;SDS011;34000;48.772;9.162;2022-09-25T07:25:28;9.00;;;5.45;;
48211;SDS011;34000;48.772;9.162;2022-09-25T07:27:56;8.73;;;5.40;;
48211;SDS011;34000;48.772;9.162;2022-09-25T07:30:23;7.05;;;4.72;;
48211;SDS011;34000;48.772;9.162;2022-09-25T07:32:51;9.02;;;5.47;;
48211;SDS011;34000;48.772;9.162;2022-09-25T07:35:17;9.07;;;5.85;;
48211;SDS011;34000;48.772;9.162;2022-09-25T07:37:43;8.65;;;5.22;;
48211;SDS011;34000;48.772;9.162;2022-09-25T07:40:08;10.48;;;5.53;;
48211;SDS011;34000;48.772;9.162;2022-09-25T07:42:37;7.28;;;4.85;;
48211;SDS011;34000;48.772;9.162;2022-09-25T07:45:03;8.02;;;5.15;;
48211;SDS011;34000;48.772;9.162;2022-09-25T07:47:28;9.52;;;5.93;;
48211;SDS011;34000;48.772;9.162;2022-09-25T07:49:54;8.73;;;5.20;;
48211;SDS011;34000;48.772;9.162;2022-09-25T07:52:20;8.93;;;4.97;;
48211;SDS011;34000;48.772;9.162;2022-09-25T07:54:45;7.93;;;5.22;;
48211;SDS011;34000;48.772;9.162;2022-09-25T07:57:11;7.10;;;4.90;;
48211;SDS011;34000;48.772;9.162;2022-09-25T07:59:37;8.32;;;5.38;;
48211;SDS011;34000;48.772;9.162;2022-09-25T08:02:03;7.70;;;4.70;;
48211;SDS011;34000;48.772;9.162;2022-09-25T08:04:29;7.32;;;4.40;;
48211;SDS011;34000;48.772;9.162;2022-09-25T08:06:56;7.45;;;4.47;;
48211;SDS011;34000;48.772;9.162;2022-09-25T08:09:23;10.70;;;5.75;;
48211;SDS011;34000;48.772;9.162;2022-09-25T08:11:48;7.78;;;4.70;;
48211;SDS011;34000;48.772;9.162;2022-09-25T08:14:14;7.47;;;4.45;;
48211;SDS011;34000;48.772;9.162;2022-09-25T08:16:40;7.32;;;4.82;;
48211;SDS011;34000;48.772;9.162;2022-09-25T08:19:06;8.40;;;4.63;;
48211;SDS011;34000;48.772;9.162;2022-09-25T08:21:32;7.60;;;4.82;;
48211;SDS011;34000;48.772;9.162;2022-09-25T08:23:58;8.20;;;4.53;;
48211;SDS011;34000;48.772;9.162;2022-09-25T08:26:25;8.13;;;4.88;;
48211;SDS011;34000;48.772;9.162;2022-09-25T08:28:53;7.63;;;5.13;;
48211;SDS011;34000;48.772;9.162;2022-09-25T08:31:19;6.57;;;4.80;;
48211;SDS011;34000;48.772;9.162;2022-09-25T08:33:45;6.95;;;4.65;;
48211;SDS011;34000;48.772;9.162;2022-09-25T08:36:11;7.85;;;4.60;;
48211;SDS011;34000;48.772;9.162;2022-09-25T08:38:37;9.18;;;4.63;;
48211;SDS011;34000;48.772;9.162;2022-09-25T08:43:34;8.23;;;4.20;;
48211;SDS011;34000;48.772;9.162;2022-09-25T08:46:08;4.45;;;3.70;;
48211;SDS011;34000;48.772;9.162;2022-09-25T08:49:08;8.68;;;5.28;;
48211;SDS011;34000;48.772;9.162;2022-09-25T08:51:46;5.53;;;3.83;;
48211;SDS011;34000;48.772;9.162;2022-09-25T08:54:24;5.43;;;3.80;;
48211;SDS011;34000;48.772;9.162;2022-09-25T08:56:52;4.10;;;3.05;;
48211;SDS011;34000;48.772;9.162;2022-09-25T09:02:08;7.47;;;3.65;;
48211;SDS011;34000;48.772;9.162;2022-09-25T09:07:13;7.53;;;4.30;;
48211;SDS011;34000;48.772;9.162;2022-09-25T09:12:46;5.13;;;3.20;;
48211;SDS011;34000;48.772;9.162;2022-09-25T09:15:33;5.88;;;3.50;;
48211;SDS011;34000;48.772;9.162;2022-09-25T09:19:04;4.70;;;3.65;;
48211;SDS011;34000;48.772;9.162;2022-09-25T09:21:05;5.78;;;3.40;;
48211;SDS011;34000;48.772;9.162;2022-09-25T09:49:35;6.93;;;3.67;;
48211;SDS011;34000;48.772;9.162;2022-09-25T09:52:10;6.22;;;3.30;;
48211;SDS011;34000;48.772;9.162;2022-09-25T09:55:00;4.43;;;3.25;;
48211;SDS011;34000;48.772;9.162;2022-09-25T09:57:43;12.18;;;5.70;;
48211;SDS011;34000;48.772;9.162;2022-09-25T10:00:13;10.70;;;6.03;;
48211;SDS011;34000;48.772;9.162;2022-09-25T10:02:47;4.90;;;3.35;;
48211;SDS011;34000;48.772;9.162;2022-09-25T10:05:38;4.57;;;3.42;;
48211;SDS011;34000;48.772;9.162;2022-09-25T10:08:11;4.55;;;3.50;;
48211;SDS011;34000;48.772;9.162;2022-09-25T10:10:38;6.05;;;3.28;;
48211;SDS011;34000;48.772;9.162;2022-09-25T10:16:13;4.32;;;3.42;;
48211;SDS011;34000;48.772;9.162;2022-09-25T10:19:02;5.18;;;3.50;;
48211;SDS011;34000;48.772;9.162;2022-09-25T10:21:38;5.13;;;3.42;;
48211;SDS011;34000;48.772;9.162;2022-09-25T10:24:44;5.75;;;4.25;;
48211;SDS011;34000;48.772;9.162;2022-09-25T10:29:46;4.90;;;3.45;;
48211;SDS011;34000;48.772;9.162;2022-09-25T10:35:26;4.93;;;3.50;;
48211;SDS011;34000;48.772;9.162;2022-09-25T10:38:15;3.60;;;3.05;;
48211;SDS011;34000;48.772;9.162;2022-09-25T10:41:10;9.90;;;3.53;;
48211;SDS011;34000;48.772;9.162;2022-09-25T10:43:51;7.53;;;4.43;;
48211;SDS011;34000;48.772;9.162;2022-09-25T10:46:32;5.97;;;3.88;;
48211;SDS011;34000;48.772;9.162;2022-09-25T10:52:06;4.85;;;3.92;;
48211;SDS011;34000;48.772;9.162;2022-09-25T10:54:37;7.15;;;4.80;;
48211;SDS011;34000;48.772;9.162;2022-09-25T10:59:50;8.35;;;4.90;;
48211;SDS011;34000;48.772;9.162;2022-09-25T11:02:20;7.07;;;4.55;;
48211;SDS011;34000;48.772;9.162;2022-09-25T11:04:57;6.13;;;4.35;;
48211;SDS011;34000;48.772;9.162;2022-09-25T11:07:24;5.93;;;4.68;;
48211;SDS011;34000;48.772;9.162;2022-09-25T11:09:51;9.70;;;5.35;;
48211;SDS011;34000;48.772;9.162;2022-09-25T11:12:24;8.75;;;5.88;;
48211;SDS011;34000;48.772;9.162;2022-09-25T11:14:54;7.07;;;5.22;;
48211;SDS011;34000;48.772;9.162;2022-09-25T11:23:02;7.65;;;5.43;;
48211;SDS011;34000;48.772;9.162;2022-09-25T11:25:47;8.68;;;5.68;;
48211;SDS011;34000;48.772;9.162;2022-09-25T11:28:29;9.70;;;6.60;;
48211;SDS011;34000;48.772;9.162;2022-09-25T11:33:39;9.65;;;5.90;;
48211;SDS011;34000;48.772;9.162;2022-09-25T11:36:18;9.05;;;6.25;;
48211;SDS011;34000;48.772;9.162;2022-09-25T11:38:53;12.73;;;6.93;;
48211;SDS011;34000;48.772;9.162;2022-09-25T11:41:43;11.20;;;7.20;;
48211;SDS011;34000;48.772;9.162;2022-09-25T11:49:33;9.05;;;6.18;;
48211;SDS011;34000;48.772;9.162;2022-09-25T12:00:14;11.77;;;7.00;;
48211;SDS011;34000;48.772;9.162;2022-09-25T12:02:48;10.32;;;6.80;;
48211;SDS011;34000;48.772;9.162;2022-09-25T12:14:53;12.73;;;7.20;;
48211;SDS011;34000;48.772;9.162;2022-09-25T12:17:53;12.00;;;7.13;;
48211;SDS011;34000;48.772;9.162;2022-09-25T12:20:58;11.57;;;6.95;;
48211;SDS011;34000;48.772;9.162;2022-09-25T12:23:43;12.80;;;6.90;;
48211;SDS011;34000;48.772;9.162;2022-09-25T12:34:21;10.90;;;6.93;;
48211;SDS011;34000;48.772;9.162;2022-09-25T12:37:38;11.48;;;7.20;;
48211;SDS011;34000;48.772;9.162;2022-09-25T12:42:59;11.82;;;7.57;;
48211;SDS011;34000;48.772;9.162;2022-09-25T12:45:56;10.43;;;7.00;;
48211;SDS011;34000;48.772;9.162;2022-09-25T12:53:52;8.30;;;5.88;;
48211;SDS011;34000;48.772;9.162;2022-09-25T12:59:35;10.23;;;6.17;;
48211;SDS011;34000;48.772;9.162;2022-09-25T13:07:37;9.90;;;5.72;;
48211;SDS011;34000;48.772;9.162;2022-09-25T13:10:21;9.75;;;5.53;;
48211;SDS011;34000;48.772;9.162;2022-09-25T13:12:52;10.02;;;5.55;;
48211;SDS011;34000;48.772;9.162;2022-09-25T13:15:22;7.78;;;5.30;;
48211;SDS011;34000;48.772;9.162;2022-09-25T13:17:50;9.30;;;5.70;;
48211;SDS011;34000;48.772;9.162;2022-09-25T13:22:51;6.78;;;5.22;;
48211;SDS011;34000;48.772;9.162;2022-09-25T13:25:49;6.25;;;4.85;;
48211;SDS011;34000;48.772;9.162;2022-09-25T13:28:33;8.35;;;5.03;;
48211;SDS011;34000;48.772;9.162;2022-09-25T13:33:36;7.20;;;4.75;;
48211;SDS011;34000;48.772;9.162;2022-09-25T13:38:48;7.70;;;5.47;;
48211;SDS011;34000;48.772;9.162;2022-09-25T13:41:45;7.40;;;4.53;;
48211;SDS011;34000;48.772;9.162;2022-09-25T13:44:35;9.68;;;5.53;;
48211;SDS011;34000;48.772;9.162;2022-09-25T14:06:18;8.23;;;4.80;;
48211;SDS011;34000;48.772;9.162;2022-09-25T14:08:48;6.65;;;4.32;;
48211;SDS011;34000;48.772;9.162;2022-09-25T14:11:18;6.60;;;4.40;;
48211;SDS011;34000;48.772;9.162;2022-09-25T14:13:57;7.07;;;4.60;;
48211;SDS011;34000;48.772;9.162;2022-09-25T14:19:24;7.82;;;5.00;;
48211;SDS011;34000;48.772;9.162;2022-09-25T14:21:54;6.70;;;4.63;;
48211;SDS011;34000;48.772;9.162;2022-09-25T14:24:24;8.35;;;4.75;;
48211;SDS011;34000;48.772;9.162;2022-09-25T14:26:58;7.03;;;4.60;;
48211;SDS011;34000;48.772;9.162;2022-09-25T14:29:46;7.68;;;4.40;;
48211;SDS011;34000;48.772;9.162;2022-09-25T14:45:40;7.38;;;3.85;;
48211;SDS011;34000;48.772;9.162;2022-09-25T14:48:24;7.18;;;3.80;;
48211;SDS011;34000;48.772;9.162;2022-09-25T14:51:09;6.32;;;4.10;;
48211;SDS011;34000;48.772;9.162;2022-09-25T14:53:44;5.60;;;3.42;;
48211;SDS011;34000;48.772;9.162;2022-09-25T14:56:13;6.10;;;3.72;;
48211;SDS011;34000;48.772;9.162;2022-09-25T14:58:50;6.13;;;3.53;;
48211;SDS011;34000;48.772;9.162;2022-09-25T15:01:23;5.32;;;3.40;;
48211;SDS011;34000;48.772;9.162;2022-09-25T15:04:05;5.00;;;3.20;;
48211;SDS011;34000;48.772;9.162;2022-09-25T15:06:33;3.30;;;2.50;;
48211;SDS011;34000;48.772;9.162;2022-09-25T15:09:17;4.20;;;2.90;;
48211;SDS011;34000;48.772;9.162;2022-09-25T15:12:00;4.32;;;3.17;;
48211;SDS011;34000;48.772;9.162;2022-09-25T15:14:39;3.95;;;2.88;;
48211;SDS011;34000;48.772;9.162;2022-09-25T15:17:21;8.50;;;3.70;;
48211;SDS011;34000;48.772;9.162;2022-09-25T15:19:47;6.72;;;3.25;;
48211;SDS011;34000;48.772;9.162;2022-09-25T15:22:17;5.70;;;4.00;;
48211;SDS011;34000;48.772;9.162;2022-09-25T15:24:48;5.18;;;3.55;;
48211;SDS011;34000;48.772;9.162;2022-09-25T15:27:18;5.15;;;3.40;;
48211;SDS011;34000;48.772;9.162;2022-09-25T15:29:45;6.10;;;3.92;;
48211;SDS011;34000;48.772;9.162;2022-09-25T15:32:25;6.38;;;3.78;;
48211;SDS011;34000;48.772;9.162;2022-09-25T15:37:34;5.40;;;3.70;;
48211;SDS011;34000;48.772;9.162;2022-09-25T15:42:49;6.95;;;3.88;;
48211;SDS011;34000;48.772;9.162;2022-09-25T15:47:56;6.97;;;3.90;;
48211;SDS011;34000;48.772;9.162;2022-09-25T15:50:24;7.88;;;4.63;;
48211;SDS011;34000;48.772;9.162;2022-09-25T15:52:53;7.07;;;3.72;;
48211;SDS011;34000;48.772;9.162;2022-09-25T15:55:21;8.80;;;5.15;;
48211;SDS011;34000;48.772;9.162;2022-09-25T15:57:48;5.43;;;3.83;;
48211;SDS011;34000;48.772;9.162;2022-09-25T16:00:20;5.60;;;4.05;;
48211;SDS011;34000;48.772;9.162;2022-09-25T16:05:59;5.40;;;3.85;;
48211;SDS011;34000;48.772;9.162;2022-09-25T16:08:28;5.43;;;3.45;;
48211;SDS011;34000;48.772;9.162;2022-09-25T16:11:04;4.95;;;3.60;;
48211;SDS011;34000;48.772;9.162;2022-09-25T16:13:41;6.30;;;3.45;;
48211;SDS011;34000;48.772;9.162;2022-09-25T16:16:20;5.57;;;3.10;;
48211;SDS011;34000;48.772;9.162;2022-09-25T16:18:53;8.55;;;3.47;;
48211;SDS011;34000;48.772;9.162;2022-09-25T16:21:43;5.57;;;3.28;;
48211;SDS011;34000;48.772;9.162;2022-09-25T16:24:12;4.40;;;3.40;;
48211;SDS011;34000;48.772;9.162;2022-09-25T16:26:43;3.90;;;2.72;;
48211;SDS011;34000;48.772;9.162;2022-09-25T16:31:35;4.28;;;2.95;;
48211;SDS011;34000;48.772;9.162;2022-09-25T16:34:06;4.85;;;2.55;;
48211;SDS011;34000;48.772;9.162;2022-09-25T16:36:42;4.07;;;3.00;;
48211;SDS011;34000;48.772;9.162;2022-09-25T16:39:10;4.47;;;3.05;;
48211;SDS011;34000;48.772;9.162;2022-09-25T16:41:42;3.95;;;2.92;;
48211;SDS011;34000;48.772;9.162;2022-09-25T16:44:13;3.85;;;2.83;;
48211;SDS011;34000;48.772;9.162;2022-09-25T16:47:05;3.40;;;2.65;;
48211;SDS011;34000;48.772;9.162;2022-09-25T16:49:40;5.60;;;2.47;;
48211;SDS011;34000;48.772;9.162;2022-09-25T16:52:09;3.65;;;2.30;;
48211;SDS011;34000;48.772;9.162;2022-09-25T16:54:45;4.53;;;2.47;;
48211;SDS011;34000;48.772;9.162;2022-09-25T16:57:12;3.08;;;2.33;;
48211;SDS011;34000;48.772;9.162;2022-09-25T16:59:41;2.90;;;2.22;;
48211;SDS011;34000;48.772;9.162;2022-09-25T17:04:57;3.88;;;2.33;;
48211;SDS011;34000;48.772;9.162;2022-09-25T17:07:24;5.32;;;2.42;;
48211;SDS011;34000;48.772;9.162;2022-09-25T17:09:49;2.78;;;2.20;;
48211;SDS011;34000;48.772;9.162;2022-09-25T17:12:17;4.78;;;2.60;;
48211;SDS011;34000;48.772;9.162;2022-09-25T17:14:45;5.38;;;2.92;;
48211;SDS011;34000;48.772;9.162;2022-09-25T17:17:14;4.18;;;2.97;;
48211;SDS011;34000;48.772;9.162;2022-09-25T17:19:43;2.75;;;2.22;;
48211;SDS011;34000;48.772;9.162;2022-09-25T17:22:08;3.63;;;2.38;;
48211;SDS011;34000;48.772;9.162;2022-09-25T17:24:34;2.80;;;2.08;;
48211;SDS011;34000;48.772;9.162;2022-09-25T17:27:00;3.70;;;2.20;;
48211;SDS011;34000;48.772;9.162;2022-09-25T17:29:26;3.30;;;2.38;;
48211;SDS011;34000;48.772;9.162;2022-09-25T17:31:52;3.83;;;2.50;;
48211;SDS011;34000;48.772;9.162;2022-09-25T17:36:48;5.03;;;2.67;;
48211;SDS011;34000;48.772;9.162;2022-09-25T17:39:14;3.33;;;2.70;;
48211;SDS011;34000;48.772;9.162;2022-09-25T17:41:39;3.88;;;2.83;;
48211;SDS011;34000;48.772;9.162;2022-09-25T17:44:05;4.90;;;3.00;;
48211;SDS011;34000;48.772;9.162;2022-09-25T17:46:36;5.75;;;3.03;;
48211;SDS011;34000;48.772;9.162;2022-09-25T17:49:02;5.50;;;3.42;;
48211;SDS011;34000;48.772;9.162;2022-09-25T17:51:28;5.75;;;3.80;;
48211;SDS011;34000;48.772;9.162;2022-09-25T17:53:54;3.92;;;3.35;;
48211;SDS011;34000;48.772;9.162;2022-09-25T17:56:21;4.80;;;2.92;;
48211;SDS011;34000;48.772;9.162;2022-09-25T17:58:48;4.25;;;3.10;;
48211;SDS011;34000;48.772;9.162;2022-09-25T18:01:16;5.63;;;3.83;;
48211;SDS011;34000;48.772;9.162;2022-09-25T18:03:49;5.90;;;3.58;;
48211;SDS011;34000;48.772;9.162;2022-09-25T18:06:19;4.95;;;3.78;;
48211;SDS011;34000;48.772;9.162;2022-09-25T18:08:45;7.97;;;4.22;;
48211;SDS011;34000;48.772;9.162;2022-09-25T18:11:12;7.35;;;4.32;;
48211;SDS011;34000;48.772;9.162;2022-09-25T18:13:39;6.72;;;4.32;;
48211;SDS011;34000;48.772;9.162;2022-09-25T18:16:06;6.30;;;4.38;;
48211;SDS011;34000;48.772;9.162;2022-09-25T18:18:40;7.47;;;4.72;;
48211;SDS011;34000;48.772;9.162;2022-09-25T18:21:25;5.68;;;3.78;;
48211;SDS011;34000;48.772;9.162;2022-09-25T18:24:09;7.10;;;5.03;;
48211;SDS011;34000;48.772;9.162;2022-09-25T18:26:35;6.93;;;4.97;;
48211;SDS011;34000;48.772;9.162;2022-09-25T18:29:00;7.00;;;4.60;;
48211;SDS011;34000;48.772;9.162;2022-09-25T18:31:26;7.72;;;5.10;;